Terminal Aerodrome Forecast
Issued by NWS

Home | Current Version | Previous Version | Graphics & Text | Print | Product List | Glossary On
Versions: 1 2 3 4 5 6 7 8 9 10 11 12 13 14 15 16 17 18 19 20 21
796
FTUS43 KFGF 152340
TAFBJI
TAF
KBJI 152340Z 1600/1624 17006KT P6SM OVC200
     FM160700 13006KT P6SM OVC100
     FM160800 13006KT P6SM VCSH OVC080
     FM161200 12006KT P6SM SHRA OVC045
     FM161700 13005KT 5SM SHRA OVC008
     FM162300 07004KT P6SM VCSH OVC008=

USA.gov is the U.S. government's official web portal to all federal, state and local government web resources and services.